Trion, Georgia
Current Conditions -  °F | °C
As of 8:53 PM on Saturday 22 Nov 2014 (Local Time) from KRMG Reporting Station
Overcast Overcast  
Wind Chill: 55°   Ceiling: 3400
Heat Index: 55°   Visibility: 10mi
Dew Point: 28°   Wind: 7mph
Humidity: 35%   Direction: 100°E
Pressure: 30.22"   Gusts: NA
Location:  34.54°N, 85.31°W
Report Text: KRMG 230153Z AUTO 10006KT 10SM OVC034 13/M02 A3022 RMK AO2 SLP232 T01281022
Loading
Personal Weather Stations






























Interactive Weather Map New forecast layout! Learn more

10-Day Weather Forecast

Advertisements
Track Severe Weather on mobile